createdAt,value
2022-10-09T00:00:00.387Z,11.75
2022-10-09T00:03:03.113Z,11.79
2022-10-09T00:06:08.203Z,11.80
2022-10-09T00:09:11.918Z,11.66
2022-10-09T00:12:15.734Z,11.68
2022-10-09T00:15:18.297Z,11.64
2022-10-09T00:18:21.909Z,11.68
2022-10-09T00:21:28.462Z,11.76
2022-10-09T00:24:32.858Z,11.70
2022-10-09T00:27:36.340Z,11.66
2022-10-09T00:30:39.739Z,11.69
2022-10-09T00:33:42.382Z,11.68
2022-10-09T00:36:44.973Z,11.71
2022-10-09T00:39:48.321Z,11.77
2022-10-09T00:42:57.159Z,11.66
2022-10-09T00:45:59.653Z,11.73
2022-10-09T00:49:07.986Z,11.72
2022-10-09T00:52:11.857Z,11.68
2022-10-09T00:55:15.190Z,11.67
2022-10-09T00:58:17.855Z,11.61
2022-10-09T01:01:23.072Z,11.59
2022-10-09T01:04:25.799Z,11.62
2022-10-09T01:07:49.268Z,11.59
2022-10-09T01:11:02.070Z,11.51
2022-10-09T01:14:18.182Z,11.49
2022-10-09T01:17:33.272Z,11.43
2022-10-09T01:20:43.132Z,11.54
2022-10-09T01:23:46.301Z,11.51
2022-10-09T01:27:15.905Z,11.53
2022-10-09T01:30:19.602Z,11.53
2022-10-09T01:33:22.880Z,11.53
2022-10-09T01:36:26.052Z,11.53
2022-10-09T01:39:31.682Z,11.52
2022-10-09T01:42:34.944Z,11.57
2022-10-09T01:45:41.259Z,11.60
2022-10-09T01:48:47.796Z,11.61
2022-10-09T01:52:08.438Z,11.57
2022-10-09T01:55:31.060Z,11.55
2022-10-09T01:58:55.017Z,11.56
2022-10-09T02:02:00.318Z,11.75
2022-10-09T02:05:04.701Z,11.89
2022-10-09T02:08:07.896Z,12.15
2022-10-09T02:11:14.891Z,12.44
2022-10-09T02:14:18.263Z,12.63
2022-10-09T02:17:26.262Z,12.87
2022-10-09T02:20:33.100Z,13.06
2022-10-09T02:23:38.340Z,13.15
2022-10-09T02:26:42.313Z,13.12
2022-10-09T02:29:46.664Z,13.14
2022-10-09T02:32:53.478Z,13.14
2022-10-09T02:35:56.094Z,13.14
2022-10-09T02:38:59.090Z,13.12
2022-10-09T02:42:02.122Z,13.10
2022-10-09T02:45:05.036Z,13.08
2022-10-09T02:48:08.644Z,13.07
2022-10-09T02:51:12.321Z,13.05
2022-10-09T02:54:14.781Z,13.10
2022-10-09T02:57:17.244Z,13.15
2022-10-09T03:00:20.276Z,13.29
2022-10-09T03:03:23.108Z,13.35
2022-10-09T03:06:29.377Z,13.34
2022-10-09T03:09:33.878Z,13.43
2022-10-09T03:12:36.500Z,13.49
2022-10-09T03:15:40.178Z,13.50
2022-10-09T03:18:44.126Z,13.66
2022-10-09T03:21:46.617Z,13.59
2022-10-09T03:24:49.957Z,13.49
2022-10-09T03:27:52.517Z,13.41
2022-10-09T03:30:55.686Z,13.33
2022-10-09T03:33:59.613Z,13.27
2022-10-09T03:37:02.123Z,13.24
2022-10-09T03:40:06.018Z,13.24
2022-10-09T03:43:08.811Z,13.18
2022-10-09T03:46:12.228Z,13.19
2022-10-09T03:49:16.499Z,13.19
2022-10-09T03:52:19.526Z,13.24
2022-10-09T03:55:22.138Z,13.23
2022-10-09T03:58:24.992Z,13.21
2022-10-09T04:01:28.104Z,13.32
2022-10-09T04:04:30.665Z,13.39
2022-10-09T04:07:34.732Z,13.39
2022-10-09T04:10:41.546Z,13.35
2022-10-09T04:13:45.089Z,13.33
2022-10-09T04:16:47.688Z,13.27
2022-10-09T04:19:51.086Z,13.26
2022-10-09T04:22:54.311Z,13.22
2022-10-09T04:25:59.654Z,13.16
2022-10-09T04:29:03.077Z,13.11
2022-10-09T04:32:06.296Z,13.14
2022-10-09T04:35:09.452Z,13.14
2022-10-09T04:38:12.243Z,13.12
2022-10-09T04:41:14.796Z,13.08
2022-10-09T04:44:17.509Z,13.03
2022-10-09T04:47:20.690Z,13.06
2022-10-09T04:50:23.394Z,13.05
2022-10-09T04:53:35.701Z,13.06
2022-10-09T04:56:38.397Z,13.20
2022-10-09T04:59:41.013Z,13.44
2022-10-09T05:02:44.653Z,13.55
2022-10-09T05:05:47.720Z,13.65
2022-10-09T05:08:51.876Z,13.60
2022-10-09T05:11:54.316Z,13.57
2022-10-09T05:14:58.688Z,13.54
2022-10-09T05:18:01.252Z,13.47
2022-10-09T05:21:05.931Z,13.40
2022-10-09T05:24:10.502Z,13.37
2022-10-09T05:27:14.157Z,13.30
2022-10-09T05:30:16.687Z,13.34
2022-10-09T05:33:20.934Z,13.31
2022-10-09T05:36:24.268Z,13.30
2022-10-09T05:39:26.786Z,13.34
2022-10-09T05:42:30.747Z,13.33
2022-10-09T05:45:33.404Z,13.36
2022-10-09T05:48:37.724Z,13.31
2022-10-09T05:51:44.560Z,13.30
2022-10-09T05:54:47.699Z,13.25
2022-10-09T05:57:50.747Z,13.28
2022-10-09T06:00:53.295Z,13.23
2022-10-09T06:03:57.689Z,13.20
2022-10-09T06:07:00.253Z,13.21
2022-10-09T06:10:05.072Z,13.22
2022-10-09T06:13:08.188Z,13.18
2022-10-09T06:16:13.575Z,13.16
2022-10-09T06:19:18.527Z,13.17
2022-10-09T06:22:21.356Z,13.22
2022-10-09T06:25:23.878Z,13.24
2022-10-09T06:28:28.992Z,13.33
2022-10-09T06:31:33.038Z,13.38
2022-10-09T06:34:36.250Z,13.43
2022-10-09T06:37:38.826Z,13.50
2022-10-09T06:40:42.234Z,13.61
2022-10-09T06:43:50.915Z,13.66
2022-10-09T06:46:54.244Z,13.72
2022-10-09T06:49:57.299Z,13.74
2022-10-09T06:53:00.726Z,13.88
2022-10-09T06:56:04.491Z,13.94
2022-10-09T06:59:07.675Z,14.03
2022-10-09T07:02:10.214Z,14.13
2022-10-09T07:05:13.355Z,14.23
2022-10-09T07:08:15.830Z,14.33
2022-10-09T07:11:22.707Z,14.33
2022-10-09T07:14:26.802Z,14.37
2022-10-09T07:17:29.418Z,14.43
2022-10-09T07:20:36.297Z,14.61
2022-10-09T07:23:39.925Z,14.65
2022-10-09T07:26:45.480Z,14.62
2022-10-09T07:29:48.946Z,14.65
2022-10-09T07:32:52.192Z,14.68
2022-10-09T07:35:56.636Z,14.79
2022-10-09T07:39:00.551Z,14.88
2022-10-09T07:42:04.197Z,14.94
2022-10-09T07:45:07.710Z,15.00
2022-10-09T07:48:10.250Z,15.07
2022-10-09T07:51:34.526Z,15.07
2022-10-09T07:54:37.857Z,15.12
2022-10-09T07:57:40.360Z,15.24
2022-10-09T08:00:44.516Z,15.36
2022-10-09T08:03:48.228Z,15.57
2022-10-09T08:06:50.700Z,15.65
2022-10-09T08:09:53.141Z,15.73
2022-10-09T08:12:55.633Z,15.80
2022-10-09T08:15:59.626Z,15.88
2022-10-09T08:19:03.367Z,15.95
2022-10-09T08:22:05.798Z,16.01
2022-10-09T08:25:09.124Z,16.12
2022-10-09T08:28:11.823Z,16.17
2022-10-09T08:31:17.245Z,16.26
2022-10-09T08:34:20.058Z,16.22
2022-10-09T08:37:22.592Z,16.29
2022-10-09T08:40:45.629Z,16.27
2022-10-09T08:43:56.532Z,16.48
2022-10-09T08:47:36.758Z,16.63
2022-10-09T08:50:47.451Z,16.72
2022-10-09T08:53:56.270Z,16.86
2022-10-09T08:57:03.138Z,16.98
2022-10-09T09:00:17.489Z,17.11
2022-10-09T09:03:40.388Z,17.23
2022-10-09T09:07:15.802Z,17.26
2022-10-09T09:10:38.326Z,17.41
2022-10-09T09:13:59.969Z,17.56
2022-10-09T09:17:19.132Z,17.60
2022-10-09T09:20:36.141Z,17.65
2022-10-09T09:23:42.692Z,17.75
2022-10-09T09:26:51.757Z,17.78
2022-10-09T09:29:58.630Z,17.79
2022-10-09T09:33:12.175Z,17.85
2022-10-09T09:36:40.754Z,17.86
2022-10-09T09:43:18.458Z,18.05
2022-10-09T09:46:26.018Z,18.16
2022-10-09T09:49:30.086Z,18.25
2022-10-09T09:52:42.158Z,18.27
2022-10-09T09:55:45.886Z,18.28
2022-10-09T09:58:51.264Z,18.25
2022-10-09T10:02:13.330Z,18.23
2022-10-09T10:05:21.540Z,18.28
2022-10-09T10:08:29.929Z,18.53
2022-10-09T10:11:35.792Z,18.72
2022-10-09T10:14:48.679Z,18.85
2022-10-09T10:18:06.452Z,18.85
2022-10-09T10:21:13.630Z,18.71
2022-10-09T10:24:22.962Z,18.74
2022-10-09T10:27:39.778Z,18.77
2022-10-09T10:30:44.534Z,18.73
2022-10-09T10:33:54.524Z,18.92
2022-10-09T10:37:20.198Z,19.00
2022-10-09T10:40:43.414Z,19.06
2022-10-09T10:44:03.957Z,18.91
2022-10-09T10:47:16.382Z,18.68
2022-10-09T10:50:27.593Z,18.53
2022-10-09T10:53:40.073Z,18.47
2022-10-09T10:56:48.708Z,18.46
2022-10-09T11:00:04.166Z,18.38
2022-10-09T11:03:25.728Z,18.37
2022-10-09T11:06:47.187Z,18.47
2022-10-09T11:10:15.976Z,18.57
2022-10-09T11:13:39.995Z,18.93
2022-10-09T11:17:15.278Z,19.29
2022-10-09T11:20:38.874Z,19.51
2022-10-09T11:23:51.594Z,19.66
2022-10-09T11:27:18.670Z,19.59
2022-10-09T11:30:22.408Z,19.58
2022-10-09T11:33:42.853Z,19.60
2022-10-09T11:36:46.603Z,19.49
2022-10-09T11:39:49.159Z,19.46
2022-10-09T11:43:17.423Z,19.35
2022-10-09T11:46:47.709Z,19.34
2022-10-09T11:50:06.967Z,19.29
2022-10-09T11:53:15.000Z,19.21
2022-10-09T11:56:24.498Z,18.97
2022-10-09T11:59:35.167Z,18.89
2022-10-09T12:02:38.496Z,18.88
2022-10-09T12:05:45.031Z,18.91
2022-10-09T12:08:58.473Z,19.40
2022-10-09T12:12:20.951Z,19.95
2022-10-09T12:15:35.886Z,20.41
2022-10-09T12:18:46.941Z,20.52
2022-10-09T12:22:10.854Z,20.62
2022-10-09T12:25:23.993Z,21.20
2022-10-09T12:28:39.411Z,21.50
2022-10-09T12:31:42.701Z,21.31
2022-10-09T12:34:51.124Z,21.70
2022-10-09T12:37:56.105Z,21.71
2022-10-09T12:41:03.149Z,21.84
2022-10-09T12:44:12.892Z,22.04
2022-10-09T12:47:23.385Z,21.53
2022-10-09T12:50:32.210Z,21.09
2022-10-09T12:53:47.084Z,21.11
2022-10-09T12:56:49.661Z,21.01
2022-10-09T12:59:52.659Z,20.86
2022-10-09T13:02:56.563Z,20.80
2022-10-09T13:06:00.154Z,20.82
2022-10-09T13:09:07.280Z,20.95
2022-10-09T13:12:24.334Z,20.86
2022-10-09T13:15:36.337Z,21.06
2022-10-09T13:18:39.171Z,21.06
2022-10-09T13:21:42.284Z,20.84
2022-10-09T13:24:45.305Z,20.75
2022-10-09T13:27:48.229Z,20.56
2022-10-09T13:30:51.965Z,20.51
2022-10-09T13:33:55.298Z,20.56
2022-10-09T13:36:58.737Z,20.60
2022-10-09T13:40:01.465Z,20.62
2022-10-09T13:43:05.755Z,20.43
2022-10-09T13:46:08.671Z,20.44
2022-10-09T13:49:11.794Z,20.38
2022-10-09T13:52:14.624Z,20.12
2022-10-09T13:55:17.887Z,19.84
2022-10-09T13:58:21.222Z,19.66
2022-10-09T14:01:24.111Z,19.54
2022-10-09T14:04:27.710Z,19.50
2022-10-09T14:07:30.998Z,19.43
2022-10-09T14:10:33.571Z,19.34
2022-10-09T14:13:38.003Z,19.19
2022-10-09T14:16:41.374Z,19.10
2022-10-09T14:19:44.809Z,18.98
2022-10-09T14:22:48.135Z,18.97
2022-10-09T14:25:51.603Z,19.01
2022-10-09T14:28:58.028Z,18.90
2022-10-09T14:32:00.597Z,18.77
2022-10-09T14:35:03.986Z,18.62
2022-10-09T14:38:07.464Z,18.56
2022-10-09T14:41:10.097Z,18.59
2022-10-09T14:44:13.046Z,18.54
2022-10-09T14:47:16.385Z,18.47
2022-10-09T14:50:19.420Z,18.45
2022-10-09T14:53:22.862Z,18.48
2022-10-09T14:56:27.372Z,18.41
2022-10-09T14:59:33.217Z,18.52
2022-10-09T15:02:35.670Z,18.60
2022-10-09T15:05:38.194Z,18.56
2022-10-09T15:08:42.483Z,18.50
2022-10-09T15:11:45.407Z,18.41
2022-10-09T15:14:49.233Z,18.34
2022-10-09T15:17:52.066Z,18.32
2022-10-09T15:20:57.870Z,18.30
2022-10-09T15:24:02.498Z,18.30
2022-10-09T15:27:05.918Z,18.22
2022-10-09T15:30:09.279Z,18.22
2022-10-09T15:33:11.877Z,18.14
2022-10-09T15:36:14.374Z,18.06
2022-10-09T15:39:17.545Z,17.87
2022-10-09T15:42:20.109Z,17.71
2022-10-09T15:45:23.459Z,17.64
2022-10-09T15:48:25.991Z,17.51
2022-10-09T15:51:31.618Z,17.45
2022-10-09T15:54:36.612Z,17.47
2022-10-09T15:57:39.171Z,17.64
2022-10-09T16:00:45.018Z,17.81
2022-10-09T16:03:48.936Z,17.80
2022-10-09T16:06:51.653Z,17.78
2022-10-09T16:09:54.205Z,17.72
2022-10-09T16:12:57.905Z,17.62
2022-10-09T16:16:04.076Z,17.56
2022-10-09T16:19:07.839Z,17.48
2022-10-09T16:22:10.358Z,17.42
2022-10-09T16:25:12.925Z,17.35
2022-10-09T16:28:15.470Z,17.20
2022-10-09T16:31:30.608Z,17.08
2022-10-09T16:34:33.087Z,17.02
2022-10-09T16:37:35.600Z,16.94
2022-10-09T16:41:02.992Z,16.89
2022-10-09T16:44:12.459Z,16.79
2022-10-09T16:47:14.911Z,16.71
2022-10-09T16:50:17.504Z,16.62
2022-10-09T16:53:20.636Z,16.59
2022-10-09T16:56:30.594Z,16.52
2022-10-09T16:59:33.353Z,16.42
2022-10-09T17:02:36.561Z,16.37
2022-10-09T17:05:39.327Z,16.24
2022-10-09T17:08:41.982Z,16.14
2022-10-09T17:11:44.623Z,15.99
2022-10-09T17:14:47.627Z,15.94
2022-10-09T17:17:51.361Z,15.88
2022-10-09T17:20:55.081Z,15.79
2022-10-09T17:24:00.434Z,15.74
2022-10-09T17:27:04.890Z,15.67
2022-10-09T17:30:08.191Z,15.57
2022-10-09T17:33:10.680Z,15.45
2022-10-09T17:36:22.808Z,15.41
2022-10-09T17:39:25.397Z,15.33
2022-10-09T17:42:28.567Z,15.35
2022-10-09T17:45:33.779Z,15.29
2022-10-09T17:48:44.409Z,15.23
2022-10-09T17:51:48.289Z,15.20
2022-10-09T17:54:50.863Z,15.15
2022-10-09T17:57:55.633Z,15.16
2022-10-09T18:00:58.410Z,15.09
2022-10-09T18:04:02.246Z,15.03
2022-10-09T18:07:05.437Z,15.01
2022-10-09T18:10:08.339Z,15.01
2022-10-09T18:13:11.650Z,15.03
2022-10-09T18:16:22.570Z,15.00
2022-10-09T18:19:25.346Z,14.95
2022-10-09T18:22:28.705Z,14.94
2022-10-09T18:25:31.592Z,14.81
2022-10-09T18:28:35.683Z,14.79
2022-10-09T18:31:38.731Z,14.70
2022-10-09T18:34:46.388Z,14.71
2022-10-09T18:37:49.054Z,14.74
2022-10-09T18:40:52.126Z,14.68
2022-10-09T18:43:55.384Z,14.59
2022-10-09T18:46:59.009Z,14.54
2022-10-09T18:50:08.359Z,14.63
2022-10-09T18:53:12.342Z,14.67
2022-10-09T18:56:17.757Z,14.64
2022-10-09T18:59:22.322Z,14.60
2022-10-09T19:02:27.038Z,14.50
2022-10-09T19:05:29.766Z,14.37
2022-10-09T19:08:35.165Z,14.31
2022-10-09T19:11:38.951Z,14.26
2022-10-09T19:14:41.508Z,14.21
2022-10-09T19:17:44.113Z,14.23
2022-10-09T19:20:48.743Z,14.26
2022-10-09T19:23:53.515Z,14.28
2022-10-09T19:26:56.078Z,14.27
2022-10-09T19:29:59.501Z,14.22
2022-10-09T19:33:02.029Z,14.36
2022-10-09T19:36:05.055Z,14.55
2022-10-09T19:39:08.599Z,14.49
2022-10-09T19:42:11.120Z,14.41
2022-10-09T19:45:14.412Z,14.35
2022-10-09T19:48:18.255Z,14.30
2022-10-09T19:51:24.226Z,14.23
2022-10-09T19:54:26.742Z,14.27
2022-10-09T19:57:29.709Z,14.25
2022-10-09T20:00:32.296Z,14.30
2022-10-09T20:03:35.257Z,14.29
2022-10-09T20:06:40.311Z,14.26
2022-10-09T20:09:43.280Z,14.22
2022-10-09T20:12:45.779Z,14.21
2022-10-09T20:15:48.268Z,14.04
2022-10-09T20:18:50.874Z,13.95
2022-10-09T20:21:53.307Z,13.79
2022-10-09T20:24:56.259Z,13.64
2022-10-09T20:27:59.917Z,13.63
2022-10-09T20:31:06.546Z,13.52
2022-10-09T20:34:09.016Z,13.55
2022-10-09T20:37:12.416Z,13.57
2022-10-09T20:40:15.296Z,13.53
2022-10-09T20:43:17.823Z,13.51
2022-10-09T20:46:23.722Z,13.41
2022-10-09T20:49:27.803Z,13.30
2022-10-09T20:52:31.950Z,13.24
2022-10-09T20:55:36.067Z,13.24
2022-10-09T20:58:39.231Z,13.22
2022-10-09T21:01:42.561Z,13.13
2022-10-09T21:04:45.929Z,13.04
2022-10-09T21:07:49.488Z,12.95
2022-10-09T21:10:52.203Z,12.76
2022-10-09T21:13:55.329Z,12.79
2022-10-09T21:16:57.795Z,12.62
2022-10-09T21:20:00.267Z,12.63
2022-10-09T21:23:02.997Z,12.62
2022-10-09T21:26:14.316Z,12.78
2022-10-09T21:29:16.822Z,12.69
2022-10-09T21:32:19.518Z,12.78
2022-10-09T21:35:22.891Z,12.77
2022-10-09T21:38:25.971Z,12.72
2022-10-09T21:41:28.520Z,12.71
2022-10-09T21:44:32.014Z,12.64
2022-10-09T21:47:34.580Z,12.56
2022-10-09T21:50:37.305Z,12.43
2022-10-09T21:53:40.376Z,12.31
2022-10-09T21:56:43.529Z,12.28
2022-10-09T21:59:47.516Z,12.27
2022-10-09T22:02:51.298Z,12.33
2022-10-09T22:05:54.057Z,12.27
2022-10-09T22:08:59.172Z,12.17
2022-10-09T22:12:01.696Z,12.19
2022-10-09T22:15:04.984Z,12.15
2022-10-09T22:18:07.833Z,12.05
2022-10-09T22:21:13.945Z,11.92
2022-10-09T22:24:16.940Z,11.79
2022-10-09T22:27:20.031Z,11.77
2022-10-09T22:30:22.598Z,11.75
2022-10-09T22:33:25.952Z,11.82
2022-10-09T22:36:32.191Z,11.82
2022-10-09T22:39:35.497Z,11.82
2022-10-09T22:42:40.541Z,11.74
2022-10-09T22:45:43.976Z,11.70
2022-10-09T22:48:46.812Z,11.67
2022-10-09T22:51:50.409Z,11.73
2022-10-09T22:54:53.667Z,11.76
2022-10-09T22:57:56.269Z,11.76
2022-10-09T23:01:03.450Z,11.64
2022-10-09T23:04:11.214Z,11.62
2022-10-09T23:07:13.887Z,11.66
2022-10-09T23:10:17.526Z,11.60
2022-10-09T23:13:21.972Z,11.60
2022-10-09T23:16:25.310Z,11.58
2022-10-09T23:19:28.641Z,11.57
2022-10-09T23:22:32.111Z,11.44
2022-10-09T23:25:40.646Z,11.42
2022-10-09T23:28:48.643Z,11.38
2022-10-09T23:31:53.302Z,11.36
2022-10-09T23:34:56.142Z,11.34
2022-10-09T23:37:58.817Z,11.40
2022-10-09T23:41:05.254Z,11.34
2022-10-09T23:44:07.737Z,11.24
2022-10-09T23:47:11.089Z,11.08
2022-10-09T23:50:15.070Z,11.07
2022-10-09T23:53:18.885Z,11.04
2022-10-09T23:56:24.570Z,11.05
2022-10-09T23:59:27.097Z,10.95
